createdAt,value
2017-08-26T00:00:02.009Z,5.93
2017-08-26T00:02:34.395Z,5.87
2017-08-26T00:05:01.050Z,4.72
2017-08-26T00:07:27.707Z,6.45
2017-08-26T00:09:54.385Z,4.57
2017-08-26T00:12:21.146Z,7.03
2017-08-26T00:14:47.898Z,5.47
2017-08-26T00:17:14.568Z,5.65
2017-08-26T00:19:41.236Z,7.35
2017-08-26T00:22:07.915Z,6.15
2017-08-26T00:24:34.599Z,7.45
2017-08-26T00:27:01.299Z,7.97
2017-08-26T00:29:28.027Z,9.20
2017-08-26T00:31:54.770Z,7.97
2017-08-26T00:34:21.410Z,6.85
2017-08-26T00:36:48.158Z,5.30
2017-08-26T00:39:14.820Z,5.87
2017-08-26T00:41:41.524Z,6.97
2017-08-26T00:44:08.199Z,9.48
2017-08-26T00:46:34.887Z,8.55
2017-08-26T00:49:01.539Z,4.97
2017-08-26T00:51:28.194Z,4.50
2017-08-26T00:53:54.878Z,5.47
2017-08-26T00:56:21.525Z,7.60
2017-08-26T00:58:48.182Z,6.03
2017-08-26T01:01:14.849Z,7.12
2017-08-26T01:03:41.492Z,7.35
2017-08-26T01:06:08.155Z,7.55
2017-08-26T01:08:34.830Z,6.82
2017-08-26T01:11:01.519Z,7.55
2017-08-26T01:13:28.264Z,7.80
2017-08-26T01:15:54.984Z,6.90
2017-08-26T01:18:21.625Z,7.78
2017-08-26T01:20:48.370Z,7.68
2017-08-26T01:23:15.107Z,8.43
2017-08-26T01:25:41.829Z,8.13
2017-08-26T01:28:08.493Z,8.80
2017-08-26T01:30:35.159Z,8.13
2017-08-26T01:33:01.887Z,8.82
2017-08-26T01:35:28.548Z,7.05
2017-08-26T01:37:55.238Z,8.90
2017-08-26T01:40:21.988Z,8.45
2017-08-26T01:42:48.651Z,7.25
2017-08-26T01:45:15.388Z,9.05
2017-08-26T01:47:42.051Z,7.70
2017-08-26T01:50:08.755Z,8.13
2017-08-26T01:52:35.419Z,7.43
2017-08-26T01:55:02.068Z,8.25
2017-08-26T01:57:28.768Z,9.50
2017-08-26T01:59:55.839Z,8.05
2017-08-26T02:02:22.556Z,6.53
2017-08-26T02:04:49.219Z,8.38
2017-08-26T02:07:15.959Z,7.20
2017-08-26T02:09:42.612Z,9.30
2017-08-26T02:12:09.339Z,8.77
2017-08-26T02:14:36.023Z,8.68
2017-08-26T02:17:02.682Z,9.95
2017-08-26T02:19:29.444Z,10.25
2017-08-26T02:21:56.189Z,8.60
2017-08-26T02:24:22.861Z,8.85
2017-08-26T02:26:49.570Z,9.95
2017-08-26T02:29:16.240Z,8.80
2017-08-26T02:31:42.962Z,10.02
2017-08-26T02:34:09.635Z,10.05
2017-08-26T02:36:36.347Z,10.20
2017-08-26T02:39:03.011Z,10.68
2017-08-26T02:41:29.708Z,11.15
2017-08-26T02:43:56.380Z,11.75
2017-08-26T02:46:23.055Z,11.00
2017-08-26T02:48:49.705Z,11.35
2017-08-26T02:51:16.395Z,10.73
2017-08-26T02:53:43.044Z,11.18
2017-08-26T02:56:09.688Z,11.88
2017-08-26T02:58:36.397Z,11.45
2017-08-26T03:01:03.129Z,10.77
2017-08-26T03:03:29.869Z,10.40
2017-08-26T03:05:56.716Z,10.90
2017-08-26T03:08:23.470Z,10.40
2017-08-26T03:10:50.131Z,9.63
2017-08-26T03:13:17.048Z,10.07
2017-08-26T03:15:43.798Z,12.48
2017-08-26T03:18:10.462Z,10.52
2017-08-26T03:20:37.144Z,12.37
2017-08-26T03:23:03.819Z,8.43
2017-08-26T03:25:30.550Z,9.07
2017-08-26T03:27:57.225Z,9.90
2017-08-26T03:30:23.877Z,9.20
2017-08-26T03:32:50.542Z,9.57
2017-08-26T03:35:17.622Z,6.90
2017-08-26T03:37:44.373Z,8.15
2017-08-26T03:40:11.039Z,9.90
2017-08-26T03:42:37.719Z,7.70
2017-08-26T03:45:04.373Z,8.73
2017-08-26T03:47:31.124Z,8.25
2017-08-26T03:49:57.871Z,7.47
2017-08-26T03:52:24.535Z,7.90
2017-08-26T03:54:51.188Z,10.00
2017-08-26T03:57:17.870Z,8.90
2017-08-26T03:59:44.617Z,8.95
2017-08-26T04:02:11.356Z,8.85
2017-08-26T04:04:38.418Z,8.75
2017-08-26T04:07:05.180Z,9.20
2017-08-26T04:09:31.838Z,8.55
2017-08-26T04:11:58.504Z,9.77
2017-08-26T04:14:25.164Z,9.65
2017-08-26T04:16:51.809Z,10.60
2017-08-26T04:19:18.499Z,10.93
2017-08-26T04:21:45.184Z,10.23
2017-08-26T04:24:11.860Z,10.90
2017-08-26T04:26:38.532Z,12.68
2017-08-26T04:29:05.180Z,12.40
2017-08-26T04:31:32.175Z,10.55
2017-08-26T04:33:58.883Z,11.52
2017-08-26T04:36:25.848Z,11.23
2017-08-26T04:38:52.589Z,12.77
2017-08-26T04:41:19.640Z,12.18
2017-08-26T04:43:46.379Z,13.05
2017-08-26T04:46:15.988Z,12.48
2017-08-26T04:48:42.934Z,13.60
2017-08-26T04:51:09.601Z,11.43
2017-08-26T04:53:36.261Z,12.95
2017-08-26T04:56:03.095Z,12.40
2017-08-26T04:58:30.002Z,12.68
2017-08-26T05:00:56.737Z,12.30
2017-08-26T05:03:23.524Z,13.00
2017-08-26T05:05:51.508Z,12.20
2017-08-26T05:08:18.462Z,12.27
2017-08-26T05:10:45.251Z,10.98
2017-08-26T05:13:11.915Z,12.25
2017-08-26T05:15:38.932Z,12.25
2017-08-26T05:18:06.121Z,12.65
2017-08-26T05:20:36.044Z,13.60
2017-08-26T05:23:02.766Z,14.43
2017-08-26T05:25:29.490Z,13.15
2017-08-26T05:27:56.311Z,13.48
2017-08-26T05:30:22.969Z,12.55
2017-08-26T05:32:49.921Z,13.70
2017-08-26T05:35:16.960Z,15.07
2017-08-26T05:37:43.697Z,16.08
2017-08-26T05:40:10.958Z,15.23
2017-08-26T05:42:37.936Z,15.10
2017-08-26T05:45:04.675Z,14.85
2017-08-26T05:47:31.733Z,15.25
2017-08-26T05:49:58.409Z,14.85
2017-08-26T05:52:25.183Z,12.98
2017-08-26T05:54:51.861Z,12.80
2017-08-26T05:57:19.887Z,13.25
2017-08-26T05:59:47.242Z,14.27
2017-08-26T06:02:13.961Z,12.82
2017-08-26T06:04:41.734Z,14.80
2017-08-26T06:07:08.540Z,12.65
2017-08-26T06:09:35.338Z,12.13
2017-08-26T06:12:02.087Z,12.70
2017-08-26T06:14:29.225Z,12.57
2017-08-26T06:16:56.480Z,13.65
2017-08-26T06:19:23.350Z,14.63
2017-08-26T06:21:50.063Z,14.68
2017-08-26T06:24:17.814Z,15.00
2017-08-26T06:26:44.481Z,15.50
2017-08-26T06:29:11.200Z,15.90
2017-08-26T06:31:39.017Z,14.73
2017-08-26T06:34:06.129Z,15.02
2017-08-26T06:36:32.839Z,14.05
2017-08-26T06:38:59.600Z,14.38
2017-08-26T06:41:26.346Z,14.93
2017-08-26T06:43:53.006Z,13.88
2017-08-26T06:46:19.694Z,13.55
2017-08-26T06:48:46.349Z,12.82
2017-08-26T06:51:12.998Z,14.80
2017-08-26T06:53:39.673Z,13.95
2017-08-26T06:56:06.380Z,13.73
2017-08-26T06:58:33.139Z,15.90
2017-08-26T07:00:59.878Z,13.88
2017-08-26T07:03:26.618Z,14.52
2017-08-26T07:05:53.268Z,14.00
2017-08-26T07:08:20.003Z,13.93
2017-08-26T07:10:46.733Z,13.82
2017-08-26T07:13:13.467Z,13.75
2017-08-26T07:15:40.162Z,13.68
2017-08-26T07:18:06.839Z,11.60
2017-08-26T07:20:33.487Z,11.93
2017-08-26T07:23:00.161Z,11.35
2017-08-26T07:25:26.810Z,11.93
2017-08-26T07:27:53.468Z,12.07
2017-08-26T07:30:20.140Z,10.57
2017-08-26T07:32:46.789Z,12.15
2017-08-26T07:35:13.451Z,10.30
2017-08-26T07:37:40.128Z,10.48
2017-08-26T07:40:06.799Z,11.30
2017-08-26T07:42:33.454Z,10.50
2017-08-26T07:45:00.138Z,11.10
2017-08-26T07:47:26.824Z,10.35
2017-08-26T07:49:53.490Z,10.18
2017-08-26T07:52:20.223Z,9.98
2017-08-26T07:54:46.954Z,9.80
2017-08-26T07:57:13.623Z,10.35
2017-08-26T07:59:40.292Z,9.88
2017-08-26T08:02:06.936Z,9.25
2017-08-26T08:04:33.599Z,9.43
2017-08-26T08:07:00.279Z,9.27
2017-08-26T08:09:26.924Z,8.30
2017-08-26T08:11:53.643Z,7.55
2017-08-26T08:14:20.383Z,6.28
2017-08-26T08:16:47.140Z,6.90
2017-08-26T08:19:13.785Z,8.27
2017-08-26T08:21:40.466Z,8.02
2017-08-26T08:24:07.127Z,7.53
2017-08-26T08:26:33.835Z,6.60
2017-08-26T08:29:00.505Z,7.05
2017-08-26T08:31:27.154Z,6.82
2017-08-26T08:33:53.906Z,6.65
2017-08-26T08:36:20.591Z,7.10
2017-08-26T08:38:47.255Z,6.72
2017-08-26T08:41:14.031Z,5.80
2017-08-26T08:43:40.714Z,6.20
2017-08-26T08:46:07.398Z,6.18
2017-08-26T08:48:34.151Z,5.93
2017-08-26T08:51:00.838Z,7.05
2017-08-26T08:53:27.489Z,6.68
2017-08-26T08:55:54.132Z,7.03
2017-08-26T08:58:21.417Z,6.90
2017-08-26T09:00:48.056Z,6.32
2017-08-26T09:03:14.803Z,7.78
2017-08-26T09:05:41.484Z,6.03
2017-08-26T09:08:08.148Z,6.95
2017-08-26T09:10:34.908Z,5.50
2017-08-26T09:13:01.582Z,5.87
2017-08-26T09:15:28.221Z,6.65
2017-08-26T09:17:54.864Z,6.45
2017-08-26T09:20:21.587Z,6.97
2017-08-26T09:22:48.314Z,7.43
2017-08-26T09:25:15.247Z,8.00
2017-08-26T09:27:41.920Z,7.90
2017-08-26T09:30:08.587Z,8.68
2017-08-26T09:32:35.286Z,7.37
2017-08-26T09:35:02.035Z,7.72
2017-08-26T09:37:28.756Z,7.35
2017-08-26T09:39:55.432Z,7.65
2017-08-26T09:42:22.139Z,8.00
2017-08-26T09:44:48.790Z,7.50
2017-08-26T09:47:15.534Z,8.57
2017-08-26T09:49:42.204Z,9.38
2017-08-26T09:52:08.884Z,8.63
2017-08-26T09:54:35.547Z,8.75
2017-08-26T09:57:02.285Z,8.02
2017-08-26T09:59:29.026Z,9.00
2017-08-26T10:01:55.774Z,7.90
2017-08-26T10:04:22.518Z,8.63
2017-08-26T10:06:49.185Z,8.30
2017-08-26T10:09:15.849Z,9.15
2017-08-26T10:11:42.564Z,8.23
2017-08-26T10:14:09.231Z,7.55
2017-08-26T10:16:35.892Z,8.80
2017-08-26T10:19:02.565Z,6.85
2017-08-26T10:21:29.306Z,6.87
2017-08-26T10:23:55.979Z,7.87
2017-08-26T10:26:22.652Z,7.75
2017-08-26T10:28:49.426Z,7.07
2017-08-26T10:31:16.091Z,7.32
2017-08-26T10:33:42.772Z,6.93
2017-08-26T10:36:09.435Z,7.95
2017-08-26T10:38:36.099Z,6.70
2017-08-26T10:41:02.794Z,7.20
2017-08-26T10:43:29.463Z,7.05
2017-08-26T10:45:56.125Z,7.43
2017-08-26T10:48:22.828Z,6.12
2017-08-26T10:50:49.476Z,7.03
2017-08-26T10:53:16.705Z,6.47
2017-08-26T10:55:43.407Z,6.45
2017-08-26T10:58:10.056Z,7.45
2017-08-26T11:00:36.844Z,7.00
2017-08-26T11:03:03.508Z,7.15
2017-08-26T11:05:30.239Z,6.12
2017-08-26T11:07:56.908Z,7.05
2017-08-26T11:10:23.589Z,7.65
2017-08-26T11:12:50.259Z,6.43
2017-08-26T11:15:16.921Z,7.10
2017-08-26T11:17:43.620Z,7.22
2017-08-26T11:20:10.368Z,6.70
2017-08-26T11:22:37.084Z,7.10
2017-08-26T11:25:03.778Z,7.03
2017-08-26T11:27:30.500Z,6.78
2017-08-26T11:29:57.230Z,7.57
2017-08-26T11:32:23.987Z,7.07
2017-08-26T11:34:50.656Z,6.97
2017-08-26T11:37:17.326Z,6.90
2017-08-26T11:39:44.016Z,6.68
2017-08-26T11:42:10.750Z,6.62
2017-08-26T11:44:37.489Z,7.03
2017-08-26T11:47:04.184Z,6.62
2017-08-26T11:49:30.825Z,6.67
2017-08-26T11:51:57.473Z,6.53
2017-08-26T11:54:24.152Z,6.00
2017-08-26T11:56:50.887Z,6.10
2017-08-26T11:59:17.634Z,6.47
2017-08-26T12:01:44.326Z,6.27
2017-08-26T12:04:10.983Z,6.10
2017-08-26T12:06:37.737Z,5.93
2017-08-26T12:09:04.491Z,5.83
2017-08-26T12:11:31.216Z,6.00
2017-08-26T12:13:57.877Z,6.23
2017-08-26T12:16:24.606Z,5.10
2017-08-26T12:18:51.355Z,6.00
2017-08-26T12:21:18.043Z,6.43
2017-08-26T12:23:44.727Z,5.80
2017-08-26T12:26:11.382Z,5.77
2017-08-26T12:28:38.092Z,4.97
2017-08-26T12:31:04.778Z,5.73
2017-08-26T12:33:31.490Z,5.03
2017-08-26T12:35:58.151Z,4.97
2017-08-26T12:38:24.879Z,5.00
2017-08-26T12:40:51.524Z,5.00
2017-08-26T12:43:18.169Z,5.10
2017-08-26T12:45:44.850Z,4.80
2017-08-26T12:48:11.535Z,4.77
2017-08-26T12:50:38.182Z,4.40
2017-08-26T12:53:04.849Z,4.90
2017-08-26T12:55:31.513Z,4.43
2017-08-26T12:57:58.159Z,4.17
2017-08-26T13:00:24.824Z,3.80
2017-08-26T13:02:51.482Z,4.30
2017-08-26T13:05:18.210Z,4.10
2017-08-26T13:07:44.897Z,3.97
2017-08-26T13:10:11.558Z,4.13
2017-08-26T13:12:38.235Z,4.07
2017-08-26T13:15:04.928Z,4.10
2017-08-26T13:17:31.597Z,4.20
2017-08-26T13:19:58.242Z,3.83
2017-08-26T13:22:24.904Z,5.20
2017-08-26T13:24:51.540Z,4.60
2017-08-26T13:27:18.258Z,5.20
2017-08-26T13:29:45.007Z,4.37
2017-08-26T13:32:11.643Z,4.77
2017-08-26T13:34:38.284Z,4.37
2017-08-26T13:37:04.970Z,4.17
2017-08-26T13:39:31.627Z,4.60
2017-08-26T13:41:58.269Z,4.97
2017-08-26T13:44:24.932Z,5.10
2017-08-26T13:46:51.563Z,4.83
2017-08-26T13:49:18.200Z,4.60
2017-08-26T13:51:44.880Z,3.97
2017-08-26T13:54:11.528Z,4.20
2017-08-26T13:56:38.249Z,4.73
2017-08-26T13:59:04.951Z,4.73
2017-08-26T14:01:31.614Z,4.90
2017-08-26T14:03:58.370Z,4.73
2017-08-26T14:06:25.069Z,4.53
2017-08-26T14:08:51.747Z,4.37
2017-08-26T14:11:18.402Z,4.00
2017-08-26T14:13:45.123Z,4.50
2017-08-26T14:16:11.870Z,4.43
2017-08-26T14:18:38.512Z,3.77
2017-08-26T14:21:05.194Z,3.70
2017-08-26T14:23:31.851Z,4.47
2017-08-26T14:25:58.522Z,4.30
2017-08-26T14:28:25.206Z,4.20
2017-08-26T14:30:51.892Z,4.53
2017-08-26T14:33:18.638Z,4.33
2017-08-26T14:35:45.295Z,4.47
2017-08-26T14:38:11.935Z,4.03
2017-08-26T14:40:38.591Z,3.80
2017-08-26T14:43:05.271Z,4.60
2017-08-26T14:45:31.935Z,4.23
2017-08-26T14:47:58.578Z,4.77
2017-08-26T14:50:25.312Z,3.40
2017-08-26T14:52:52.052Z,4.67
2017-08-26T14:55:18.706Z,5.03
2017-08-26T14:57:45.394Z,3.80
2017-08-26T15:00:12.091Z,4.50
2017-08-26T15:02:38.833Z,3.90
2017-08-26T15:05:05.512Z,4.00
2017-08-26T15:07:32.211Z,4.80
2017-08-26T15:09:58.874Z,4.63
2017-08-26T15:12:25.561Z,3.60
2017-08-26T15:14:52.212Z,3.97
2017-08-26T15:17:18.871Z,4.33
2017-08-26T15:19:45.590Z,4.00
2017-08-26T15:22:12.340Z,4.13
2017-08-26T15:24:39.104Z,4.53
2017-08-26T15:27:05.776Z,4.67
2017-08-26T15:29:32.416Z,4.60
2017-08-26T15:31:59.093Z,3.93
2017-08-26T15:34:25.854Z,5.30
2017-08-26T15:36:52.580Z,4.10
2017-08-26T15:39:19.433Z,4.70
2017-08-26T15:41:46.100Z,5.17
2017-08-26T15:44:12.744Z,5.07
2017-08-26T15:46:39.383Z,4.90
2017-08-26T15:49:06.082Z,5.50
2017-08-26T15:51:32.720Z,4.33
2017-08-26T15:53:59.379Z,4.80
2017-08-26T15:56:26.059Z,4.90
2017-08-26T15:58:52.718Z,4.93
2017-08-26T16:01:19.395Z,5.40
2017-08-26T16:03:46.138Z,6.00
2017-08-26T16:06:12.883Z,5.30
2017-08-26T16:08:39.537Z,4.80
2017-08-26T16:11:06.264Z,4.70
2017-08-26T16:13:32.912Z,5.27
2017-08-26T16:15:59.552Z,6.40
2017-08-26T16:18:26.259Z,5.70
2017-08-26T16:20:53.019Z,5.30
2017-08-26T16:23:19.749Z,5.77
2017-08-26T16:25:46.417Z,6.43
2017-08-26T16:28:13.067Z,5.70
2017-08-26T16:30:39.703Z,5.87
2017-08-26T16:33:06.393Z,6.13
2017-08-26T16:35:33.043Z,6.10
2017-08-26T16:37:59.706Z,6.73
2017-08-26T16:40:26.372Z,7.73
2017-08-26T16:42:53.031Z,6.67
2017-08-26T16:45:19.700Z,7.20
2017-08-26T16:47:46.374Z,6.33
2017-08-26T16:50:13.090Z,7.40
2017-08-26T16:52:39.736Z,7.20
2017-08-26T16:55:06.403Z,6.90
2017-08-26T16:57:33.050Z,7.50
2017-08-26T16:59:59.705Z,6.93
2017-08-26T17:02:26.485Z,6.30
2017-08-26T17:04:53.128Z,6.57
2017-08-26T17:07:19.859Z,6.70
2017-08-26T17:09:46.524Z,6.73
2017-08-26T17:12:13.182Z,6.00
2017-08-26T17:14:39.896Z,7.63
2017-08-26T17:17:06.574Z,7.77
2017-08-26T17:19:33.265Z,7.20
2017-08-26T17:21:59.908Z,7.80
2017-08-26T17:24:26.659Z,8.50
2017-08-26T17:26:53.485Z,7.53
2017-08-26T17:29:20.141Z,7.27
2017-08-26T17:31:46.824Z,8.20
2017-08-26T17:34:13.495Z,7.53
2017-08-26T17:36:40.259Z,5.40
2017-08-26T17:39:06.988Z,7.40
2017-08-26T17:41:33.724Z,8.23
2017-08-26T17:44:00.383Z,7.73
2017-08-26T17:46:27.075Z,8.20
2017-08-26T17:48:53.739Z,25.00
2017-08-26T17:51:20.402Z,16.97
2017-08-26T17:53:47.072Z,9.37
2017-08-26T17:56:13.782Z,7.80
2017-08-26T17:58:40.433Z,16.00
2017-08-26T18:01:07.133Z,13.13
2017-08-26T18:03:33.790Z,11.55
2017-08-26T18:06:00.546Z,9.10
2017-08-26T18:08:27.238Z,9.73
2017-08-26T18:10:54.018Z,11.23
2017-08-26T18:13:20.765Z,12.02
2017-08-26T18:15:47.445Z,11.98
2017-08-26T18:18:14.100Z,16.87
2017-08-26T18:20:40.786Z,14.05
2017-08-26T18:23:07.531Z,10.45
2017-08-26T18:25:34.203Z,11.10
2017-08-26T18:28:00.872Z,11.48
2017-08-26T18:30:27.650Z,12.37
2017-08-26T18:32:54.395Z,13.48
2017-08-26T18:35:21.135Z,16.48
2017-08-26T18:37:47.813Z,14.98
2017-08-26T18:40:14.482Z,13.77
2017-08-26T18:42:41.159Z,13.40
2017-08-26T18:45:07.866Z,11.75
2017-08-26T18:47:34.642Z,12.07
2017-08-26T18:50:01.379Z,11.60
2017-08-26T18:52:28.075Z,11.63
2017-08-26T18:54:54.759Z,12.25
2017-08-26T18:57:21.427Z,11.98
2017-08-26T18:59:48.233Z,12.73
2017-08-26T19:02:14.969Z,12.40
2017-08-26T19:04:41.631Z,11.95
2017-08-26T19:07:08.355Z,12.82
2017-08-26T19:09:35.022Z,13.38
2017-08-26T19:12:01.699Z,11.95
2017-08-26T19:14:28.390Z,12.27
2017-08-26T19:16:55.105Z,13.27
2017-08-26T19:19:21.756Z,13.55
2017-08-26T19:21:48.445Z,12.65
2017-08-26T19:24:15.142Z,14.40
2017-08-26T19:26:41.887Z,13.52
2017-08-26T19:29:09.039Z,12.60
2017-08-26T19:31:35.974Z,13.93
2017-08-26T19:34:02.816Z,12.65
2017-08-26T19:36:32.366Z,13.23
2017-08-26T19:39:00.255Z,13.80
2017-08-26T19:41:28.429Z,15.75
2017-08-26T19:43:55.313Z,15.30
2017-08-26T19:46:21.996Z,15.05
2017-08-26T19:48:48.770Z,14.57
2017-08-26T19:51:15.535Z,15.05
2017-08-26T19:53:44.427Z,15.45
2017-08-26T19:56:11.113Z,16.10
2017-08-26T19:58:37.795Z,15.85
2017-08-26T20:01:04.459Z,15.60
2017-08-26T20:03:31.183Z,17.40
2017-08-26T20:05:57.920Z,16.87
2017-08-26T20:08:24.666Z,18.15
2017-08-26T20:10:51.419Z,16.17
2017-08-26T20:13:18.107Z,20.58
2017-08-26T20:15:44.768Z,22.30
2017-08-26T20:18:11.461Z,17.65
2017-08-26T20:20:38.178Z,16.40
2017-08-26T20:23:04.903Z,22.67
2017-08-26T20:25:31.666Z,15.32
2017-08-26T20:27:58.349Z,14.05
2017-08-26T20:30:25.019Z,14.65
2017-08-26T20:32:51.772Z,14.30
2017-08-26T20:35:18.468Z,14.82
2017-08-26T20:37:45.115Z,14.80
2017-08-26T20:40:11.793Z,15.15
2017-08-26T20:42:38.547Z,15.43
2017-08-26T20:45:05.214Z,14.07
2017-08-26T20:47:31.890Z,15.75
2017-08-26T20:49:58.582Z,16.37
2017-08-26T20:52:25.298Z,16.55
2017-08-26T20:54:51.948Z,16.73
2017-08-26T20:57:18.647Z,16.48
2017-08-26T20:59:45.304Z,16.10
2017-08-26T21:02:11.967Z,15.82
2017-08-26T21:04:38.640Z,15.73
2017-08-26T21:07:05.303Z,16.52
2017-08-26T21:09:31.987Z,16.67
2017-08-26T21:11:58.664Z,13.95
2017-08-26T21:14:25.352Z,15.38
2017-08-26T21:16:52.015Z,14.00
2017-08-26T21:19:18.742Z,15.45
2017-08-26T21:21:45.487Z,16.15
2017-08-26T21:24:12.155Z,15.13
2017-08-26T21:26:38.842Z,16.45
2017-08-26T21:29:05.498Z,15.50
2017-08-26T21:31:32.202Z,16.80
2017-08-26T21:33:58.898Z,15.90
2017-08-26T21:36:25.612Z,15.85
2017-08-26T21:38:52.371Z,14.75
2017-08-26T21:41:19.044Z,14.27
2017-08-26T21:43:45.696Z,16.00
2017-08-26T21:46:12.360Z,14.18
2017-08-26T21:48:39.033Z,14.85
2017-08-26T21:51:05.780Z,14.32
2017-08-26T21:53:32.428Z,15.65
2017-08-26T21:55:59.100Z,15.35
2017-08-26T21:58:25.786Z,16.52
2017-08-26T22:00:52.523Z,15.38
2017-08-26T22:03:19.275Z,20.42
2017-08-26T22:05:46.001Z,18.05
2017-08-26T22:08:12.653Z,17.98
2017-08-26T22:10:39.343Z,17.42
2017-08-26T22:13:06.017Z,16.40
2017-08-26T22:15:32.665Z,15.13
2017-08-26T22:17:59.352Z,15.75
2017-08-26T22:20:26.040Z,15.80
2017-08-26T22:22:52.799Z,15.35
2017-08-26T22:25:19.476Z,16.70
2017-08-26T22:27:46.175Z,17.45
2017-08-26T22:30:12.843Z,17.02
2017-08-26T22:32:39.521Z,17.67
2017-08-26T22:35:06.294Z,18.90
2017-08-26T22:37:33.042Z,18.23
2017-08-26T22:39:59.721Z,18.62
2017-08-26T22:42:26.414Z,17.95
2017-08-26T22:44:53.153Z,15.55
2017-08-26T22:47:19.837Z,19.58
2017-08-26T22:49:46.529Z,17.85
2017-08-26T22:52:13.284Z,15.75
2017-08-26T22:54:39.968Z,18.58
2017-08-26T22:57:06.667Z,17.45
2017-08-26T22:59:33.331Z,16.98
2017-08-26T23:02:00.016Z,17.02
2017-08-26T23:04:26.664Z,16.83
2017-08-26T23:06:53.355Z,15.63
2017-08-26T23:09:20.063Z,17.25
2017-08-26T23:11:46.716Z,17.37
2017-08-26T23:14:13.364Z,18.70
2017-08-26T23:16:40.065Z,16.55
2017-08-26T23:19:06.823Z,15.02
2017-08-26T23:21:33.486Z,16.00
2017-08-26T23:24:00.194Z,15.88
2017-08-26T23:26:26.933Z,17.00
2017-08-26T23:28:53.595Z,13.85
2017-08-26T23:31:20.299Z,16.52
2017-08-26T23:33:47.047Z,14.60
2017-08-26T23:36:13.808Z,16.45
2017-08-26T23:38:40.496Z,15.10
2017-08-26T23:41:07.173Z,15.02
2017-08-26T23:43:33.912Z,14.70
2017-08-26T23:46:00.658Z,15.88
2017-08-26T23:48:27.324Z,17.65
2017-08-26T23:50:53.982Z,18.67
2017-08-26T23:53:20.651Z,16.95
2017-08-26T23:55:47.312Z,18.12
2017-08-26T23:58:14.078Z,19.02
